Time;durP1;ratioP1;P1;durP2;ratioP2;P2;SDS_P1;SDS_P2;PMS_P1;PMS_P2;Temp;Humidity;BMP_temperature;BMP_pressure;BME280_temperature;BME280_humidity;BME280_pressure;Samples;Min_cycle;Max_cycle;Signal;HPM_P1;HPM_P2
2022/07/15 00:00:48;;;;;;;10.90;3.55;;;;;;;13.69;78.50;102187.38;5018972;28;20112;-74
2022/07/15 00:03:14;;;;;;;7.82;3.17;;;;;;;13.61;78.77;102184.34;5016577;28;20049;-80
2022/07/15 00:05:39;;;;;;;8.43;3.20;;;;;;;13.56;78.89;102186.44;5016959;28;20029;-79
2022/07/15 00:08:06;;;;;;;8.07;3.00;;;;;;;13.48;79.28;102179.03;5007982;28;20095;-74
2022/07/15 00:10:31;;;;;;;11.73;3.70;;;;;;;13.45;79.23;102182.72;5017203;28;20035;-74
2022/07/15 00:12:59;;;;;;;6.93;3.17;;;;;;;13.41;79.54;102186.50;5008790;28;20041;-74
2022/07/15 00:15:28;;;;;;;7.15;3.20;;;;;;;13.34;79.55;102187.00;5009468;28;20034;-79
2022/07/15 00:17:54;;;;;;;9.63;3.50;;;;;;;13.24;79.86;102184.09;5010297;28;20025;-79
2022/07/15 00:20:21;;;;;;;10.18;3.60;;;;;;;13.21;80.30;102194.00;5008386;28;20096;-74
2022/07/15 00:22:48;;;;;;;7.38;3.38;;;;;;;13.19;80.05;102183.53;5016662;28;20108;-74
2022/07/15 00:25:14;;;;;;;13.40;3.85;;;;;;;13.21;80.38;102194.00;5010171;28;20018;-74
2022/07/15 00:27:57;;;;;;;9.82;4.00;;;;;;;13.17;79.98;102188.91;5019783;28;20034;-79
2022/07/15 00:30:23;;;;;;;7.50;3.10;;;;;;;13.14;80.19;102189.06;5016789;28;20092;-74
2022/07/15 00:32:50;;;;;;;10.52;3.45;;;;;;;13.12;80.43;102193.59;5008938;28;20080;-80
2022/07/15 00:35:18;;;;;;;14.60;3.83;;;;;;;13.04;81.13;102187.97;5009133;28;20449;-79
2022/07/15 00:37:43;;;;;;;10.07;3.53;;;;;;;13.02;81.40;102184.56;5012625;28;20509;-80
2022/07/15 00:40:09;;;;;;;10.68;3.70;;;;;;;13.04;81.29;102187.97;5007859;28;20061;-80
2022/07/15 00:42:44;;;;;;;14.60;4.00;;;;;;;13.00;81.37;102181.19;5008451;28;20111;-80
2022/07/15 00:45:20;;;;;;;11.23;3.67;;;;;;;13.01;81.55;102187.31;5007969;28;20406;-75
2022/07/15 00:47:48;;;;;;;9.35;3.88;;;;;;;12.93;81.40;102185.16;5008875;28;20034;-79
2022/07/15 00:50:18;;;;;;;9.50;3.30;;;;;;;12.92;81.71;102183.47;5009200;28;20029;-80
2022/07/15 00:52:47;;;;;;;10.32;3.42;;;;;;;12.84;81.77;102188.38;5019925;28;20046;-75
2022/07/15 00:55:13;;;;;;;8.45;3.42;;;;;;;12.92;81.69;102183.47;5007787;28;20045;-75
2022/07/15 00:57:42;;;;;;;11.20;4.07;;;;;;;12.82;82.01;102187.63;5007698;28;20423;-75
2022/07/15 01:00:11;;;;;;;9.68;3.75;;;;;;;12.78;82.02;102186.94;5011892;28;20025;-80
2022/07/15 01:02:38;;;;;;;10.10;3.42;;;;;;;12.74;82.31;102182.78;5009142;28;20030;-80
2022/07/15 01:05:06;;;;;;;8.30;3.47;;;;;;;12.73;82.15;102189.00;5010067;28;20030;-80
2022/07/15 01:07:33;;;;;;;8.00;3.85;;;;;;;12.71;82.36;102187.41;5008089;28;20486;-75
2022/07/15 01:09:59;;;;;;;10.65;3.45;;;;;;;12.65;82.95;102190.44;5008635;28;20420;-79
2022/07/15 01:12:26;;;;;;;11.43;4.10;;;;;;;12.59;82.63;102178.47;5009766;28;20026;-79
2022/07/15 01:14:51;;;;;;;10.45;3.80;;;;;;;12.57;82.75;102176.84;5010284;28;20030;-79
2022/07/15 01:17:19;;;;;;;10.27;3.75;;;;;;;12.54;82.52;102172.63;5008992;28;20456;-80
2022/07/15 01:19:45;;;;;;;10.38;3.75;;;;;;;12.56;82.47;102168.09;5016059;28;20068;-80
2022/07/15 01:22:11;;;;;;;7.32;3.70;;;;;;;12.59;82.19;102174.97;5012204;28;20482;-80
2022/07/15 01:24:37;;;;;;;8.73;3.90;;;;;;;12.55;82.08;102180.44;5018618;28;20083;-75
2022/07/15 01:27:02;;;;;;;10.60;3.53;;;;;;;12.48;82.60;102175.63;5016507;28;20536;-80
2022/07/15 01:29:28;;;;;;;12.68;3.78;;;;;;;12.50;83.01;102177.22;5010877;28;20477;-80
2022/07/15 01:31:53;;;;;;;12.20;4.15;;;;;;;12.47;83.13;102192.41;5012174;28;20038;-74
2022/07/15 01:34:19;;;;;;;9.10;3.90;;;;;;;12.41;82.94;102185.72;5011661;28;20048;-75
2022/07/15 01:36:45;;;;;;;11.82;3.90;;;;;;;12.42;83.33;102190.06;5015952;28;20038;-74
2022/07/15 01:39:10;;;;;;;8.73;3.90;;;;;;;12.46;83.05;102191.56;5014638;28;20014;-74
2022/07/15 01:41:36;;;;;;;13.45;4.40;;;;;;;12.33;83.20;102190.56;5011263;28;20033;-80
2022/07/15 01:44:01;;;;;;;11.48;3.75;;;;;;;12.31;82.81;102192.47;5014854;28;20040;-80
2022/07/15 01:46:32;;;;;;;8.75;4.00;;;;;;;12.28;83.49;102197.06;5009798;28;20018;-74
2022/07/15 01:51:42;;;;;;;11.90;4.32;;;;;;;12.22;83.80;102195.66;5010526;28;20508;-80
2022/07/15 01:54:07;;;;;;;9.00;4.18;;;;;;;12.22;83.89;102195.66;5011893;28;20030;-81
2022/07/15 01:56:36;;;;;;;11.85;4.43;;;;;;;12.17;84.03;102200.34;5011039;28;20436;-75
2022/07/15 01:59:02;;;;;;;14.18;4.70;;;;;;;12.14;84.25;102204.03;5009074;28;20034;-80
2022/07/15 02:01:29;;;;;;;9.52;4.35;;;;;;;12.09;83.64;102207.88;5011077;28;20074;-75
2022/07/15 02:03:54;;;;;;;12.50;5.10;;;;;;;12.05;84.51;102209.00;5012100;28;20092;-75
2022/07/15 02:06:19;;;;;;;10.15;4.80;;;;;;;12.03;84.50;102205.59;5018592;28;20167;-75
2022/07/15 02:08:46;;;;;;;8.20;4.55;;;;;;;12.08;84.92;102200.91;5012422;28;20037;-75
2022/07/15 02:11:12;;;;;;;9.95;4.13;;;;;;;12.06;84.52;102198.34;5012541;28;20393;-81
2022/07/15 02:13:37;;;;;;;9.88;4.50;;;;;;;12.06;84.50;102198.34;5011798;28;20022;-81
2022/07/15 02:16:05;;;;;;;12.52;4.70;;;;;;;12.04;83.97;102194.13;5012582;28;20108;-75
2022/07/15 02:18:31;;;;;;;13.55;4.45;;;;;;;11.99;84.18;102197.00;5010950;28;20033;-80
2022/07/15 02:20:57;;;;;;;8.95;4.65;;;;;;;12.02;84.49;102196.00;5012182;28;20053;-74
2022/07/15 02:23:23;;;;;;;8.98;4.40;;;;;;;12.00;84.58;102195.19;5011667;28;20030;-74
2022/07/15 02:25:49;;;;;;;10.02;4.32;;;;;;;11.96;84.65;102193.69;5011275;28;20032;-74
2022/07/15 02:28:15;;;;;;;11.55;4.80;;;;;;;11.93;84.52;102198.19;5016894;28;20021;-74
2022/07/15 02:30:43;;;;;;;8.15;4.40;;;;;;;11.93;84.67;102198.19;5010244;28;20026;-74
2022/07/15 02:33:08;;;;;;;11.63;4.93;;;;;;;11.90;84.66;102193.09;5016545;28;20044;-79
2022/07/15 02:35:34;;;;;;;10.77;4.32;;;;;;;11.82;85.35;102190.06;5009923;28;20590;-79
2022/07/15 02:38:00;;;;;;;10.20;4.93;;;;;;;11.85;85.27;102189.88;5026562;28;20160;-75
2022/07/15 02:40:26;;;;;;;10.10;4.75;;;;;;;11.85;84.97;102189.88;5012592;28;20062;-75
2022/07/15 02:42:54;;;;;;;11.15;4.90;;;;;;;11.82;85.03;102197.13;5015006;28;20034;-75
2022/07/15 02:45:21;;;;;;;11.15;4.68;;;;;;;11.81;85.11;102201.56;5017979;28;20068;-79
2022/07/15 02:47:48;;;;;;;8.82;4.45;;;;;;;11.72;85.36;102194.16;5017476;28;20357;-80
2022/07/15 02:50:14;;;;;;;13.18;5.78;;;;;;;11.70;85.63;102198.66;5025136;28;20044;-81
2022/07/15 02:52:40;;;;;;;12.57;5.30;;;;;;;11.65;86.22;102200.72;5009383;28;20057;-81
2022/07/15 02:55:07;;;;;;;11.40;4.95;;;;;;;11.64;86.19;102201.66;5017901;28;20037;-81
2022/07/15 02:57:32;;;;;;;9.48;4.95;;;;;;;11.63;86.22;102199.94;5009986;28;20049;-81
2022/07/15 02:59:58;;;;;;;14.38;4.68;;;;;;;11.67;86.69;102201.47;5010410;28;20425;-81
2022/07/15 03:02:24;;;;;;;11.63;4.65;;;;;;;11.58;86.89;102212.50;5024398;28;20441;-81
2022/07/15 03:04:51;;;;;;;11.30;4.65;;;;;;;11.57;87.52;102222.19;5014982;28;20021;-81
2022/07/15 03:07:17;;;;;;;10.27;4.35;;;;;;;11.55;87.35;102220.59;5022621;28;20477;-74
2022/07/15 03:09:42;;;;;;;11.43;4.40;;;;;;;11.57;86.57;102231.91;5010544;28;20121;-75
2022/07/15 03:12:07;;;;;;;8.15;3.97;;;;;;;11.62;86.16;102235.16;5010786;28;20092;-74
2022/07/15 03:14:35;;;;;;;9.85;4.38;;;;;;;11.57;86.65;102235.38;5010017;28;20379;-76
2022/07/15 03:17:01;;;;;;;10.68;4.50;;;;;;;11.55;87.12;102225.88;5010966;28;20084;-75
2022/07/15 03:19:26;;;;;;;8.70;4.18;;;;;;;11.51;86.91;102232.25;5011111;28;20025;-80
2022/07/15 03:21:52;;;;;;;11.88;4.40;;;;;;;11.48;87.11;102229.78;5019176;28;20044;-80
2022/07/15 03:24:17;;;;;;;10.23;4.30;;;;;;;11.52;86.66;102228.69;5019425;28;20018;-80
2022/07/15 03:26:43;;;;;;;11.15;4.47;;;;;;;11.46;87.07;102235.13;5014686;28;20053;-81
2022/07/15 03:29:09;;;;;;;8.90;4.20;;;;;;;11.47;87.23;102236.00;5010773;28;20021;-80
2022/07/15 03:31:35;;;;;;;10.05;4.03;;;;;;;11.46;87.29;102240.41;5018992;28;20421;-80
2022/07/15 03:34:00;;;;;;;10.20;4.18;;;;;;;11.48;87.33;102242.97;5017608;28;20363;-81
2022/07/15 03:36:27;;;;;;;10.15;4.32;;;;;;;11.45;87.64;102248.41;5016965;28;20086;-81
2022/07/15 03:38:53;;;;;;;10.70;4.28;;;;;;;11.45;87.34;102245.78;5011458;28;20375;-81
2022/07/15 03:41:19;;;;;;;9.77;4.65;;;;;;;11.48;87.45;102240.31;5019357;28;20040;-74
2022/07/15 03:43:44;;;;;;;9.23;4.13;;;;;;;11.47;87.20;102241.25;5019099;28;20431;-74
2022/07/15 03:46:10;;;;;;;9.02;4.63;;;;;;;11.44;88.14;102247.56;5010725;28;20113;-74
2022/07/15 03:48:36;;;;;;;9.85;4.63;;;;;;;11.48;87.98;102250.88;5023268;28;20552;-80
2022/07/15 03:51:01;;;;;;;11.15;4.65;;;;;;;11.46;88.11;102248.31;5024520;28;20022;-81
2022/07/15 03:53:26;;;;;;;12.00;4.57;;;;;;;11.53;87.81;102260.22;5021859;28;20054;-80
2022/07/15 03:55:52;;;;;;;10.95;4.85;;;;;;;11.52;88.57;102260.31;5036248;28;20026;-74
2022/07/15 03:58:17;;;;;;;7.45;4.30;;;;;;;11.56;88.43;102267.09;5028711;28;20036;-80
2022/07/15 04:00:42;;;;;;;10.02;4.38;;;;;;;11.56;88.68;102261.84;5028082;28;20026;-73
2022/07/15 04:03:08;;;;;;;10.43;4.57;;;;;;;11.61;89.09;102255.41;5035788;28;20010;-79
2022/07/15 04:05:33;;;;;;;10.63;4.70;;;;;;;11.65;89.40;102268.41;5030143;28;20082;-79
2022/07/15 04:07:58;;;;;;;16.55;4.72;;;;;;;11.72;88.71;102264.50;5029582;28;20022;-74
2022/07/15 04:10:28;;;;;;;8.65;4.65;;;;;;;11.78;89.06;102261.53;5026864;28;20037;-73
2022/07/15 04:12:54;;;;;;;11.77;5.00;;;;;;;11.98;89.43;102258.59;5028709;28;20060;-74
2022/07/15 04:15:20;;;;;;;9.15;4.57;;;;;;;12.72;86.80;102265.69;5027589;28;20052;-74
2022/07/15 04:17:48;;;;;;;6.93;3.72;;;;;;;13.61;83.49;102267.22;5029461;28;20062;-74
2022/07/15 04:20:14;;;;;;;7.95;3.60;;;;;;;14.40;79.69;102259.31;5030400;28;20085;-74
2022/07/15 04:22:44;;;;;;;9.57;3.70;;;;;;;15.26;76.05;102261.38;5029063;28;20033;-75
2022/07/15 04:25:14;;;;;;;11.05;3.85;;;;;;;15.58;73.72;102262.56;5030428;28;20051;-74
2022/07/15 04:27:39;;;;;;;8.75;4.00;;;;;;;15.28;73.80;102259.47;5048228;28;20026;-79
2022/07/15 04:30:06;;;;;;;9.45;3.65;;;;;;;15.33;74.36;102262.63;5037894;28;20030;-75
2022/07/15 04:32:31;;;;;;;8.27;3.70;;;;;;;14.87;75.17;102255.25;5026709;28;20034;-75
2022/07/15 04:34:57;;;;;;;7.43;3.40;;;;;;;14.63;76.12;102265.72;5028830;28;20514;-74
2022/07/15 04:37:24;;;;;;;8.95;4.45;;;;;;;14.41;76.71;102268.13;5034511;28;20397;-79
2022/07/15 04:39:49;;;;;;;15.10;4.10;;;;;;;14.27;78.01;102261.09;5027451;28;20426;-75
2022/07/15 04:42:18;;;;;;;11.15;4.00;;;;;;;14.17;78.40;102267.94;5039014;28;20038;-79
2022/07/15 04:44:48;;;;;;;9.35;4.30;;;;;;;14.05;78.99;102271.41;5022701;28;20104;-80
2022/07/15 04:47:14;;;;;;;10.75;4.22;;;;;;;14.00;79.86;102274.34;5013533;28;20039;-80
2022/07/15 04:52:25;;;;;;;10.88;4.38;;;;;;;13.79;81.38;102273.97;5008720;28;20468;-75
2022/07/15 04:54:51;;;;;;;8.05;4.32;;;;;;;13.79;80.39;102273.97;5026812;28;20086;-74
2022/07/15 04:57:18;;;;;;;8.40;3.88;;;;;;;13.77;80.90;102272.34;5011795;28;20133;-74
2022/07/15 04:59:43;;;;;;;12.30;4.63;;;;;;;13.64;81.31;102274.97;5014952;28;20022;-79
2022/07/15 05:02:09;;;;;;;9.55;4.70;;;;;;;13.63;81.36;102273.25;5018885;28;20044;-80
2022/07/15 05:04:35;;;;;;;11.48;5.20;;;;;;;13.50;81.77;102274.97;5013628;28;20812;-81
2022/07/15 05:07:01;;;;;;;9.55;4.43;;;;;;;13.49;82.10;102275.91;5014143;28;20112;-75
2022/07/15 05:09:31;;;;;;;11.50;4.85;;;;;;;13.39;82.67;102278.28;5011979;28;20025;-74
2022/07/15 05:11:57;;;;;;;12.57;5.43;;;;;;;13.37;82.79;102277.53;5013651;28;20482;-80
2022/07/15 05:14:23;;;;;;;11.20;5.18;;;;;;;13.30;83.63;102278.88;5019777;28;20021;-80
2022/07/15 05:16:50;;;;;;;14.35;4.90;;;;;;;13.29;83.80;102277.19;5013729;28;20025;-74
2022/07/15 05:19:18;;;;;;;15.18;6.03;;;;;;;13.26;84.02;102287.94;5011624;28;20030;-75
2022/07/15 05:21:44;;;;;;;8.80;5.35;;;;;;;13.18;84.40;102277.81;5013006;28;20026;-75
2022/07/15 05:24:10;;;;;;;11.82;5.93;;;;;;;13.22;84.62;102275.88;5011906;28;20022;-75
2022/07/15 05:26:36;;;;;;;12.60;5.82;;;;;;;13.24;84.65;102288.97;5022280;28;20079;-81
2022/07/15 05:29:01;;;;;;;13.90;5.28;;;;;;;13.25;84.82;102275.66;5012708;28;20131;-82
2022/07/15 05:31:28;;;;;;;10.93;5.03;;;;;;;13.33;84.67;102283.97;5012732;28;20030;-75
2022/07/15 05:33:54;;;;;;;13.63;5.28;;;;;;;13.30;84.48;102276.22;5012843;28;20038;-80
2022/07/15 05:36:19;;;;;;;12.63;5.30;;;;;;;13.38;84.53;102281.03;5012089;28;20112;-79
2022/07/15 05:38:45;;;;;;;14.88;5.65;;;;;;;13.41;84.59;102279.03;5025563;28;20105;-75
2022/07/15 05:41:11;;;;;;;14.23;5.13;;;;;;;13.47;85.02;102285.72;5017138;28;20029;-80
2022/07/15 05:43:37;;;;;;;11.25;4.65;;;;;;;13.49;84.04;102275.91;5012038;28;20144;-75
2022/07/15 05:46:02;;;;;;;13.13;5.22;;;;;;;13.53;84.38;102273.91;5013414;28;20371;-80
2022/07/15 05:48:28;;;;;;;21.58;6.03;;;;;;;13.58;84.52;102277.97;5011772;28;20029;-80
2022/07/15 05:50:53;;;;;;;13.43;5.28;;;;;;;13.66;84.45;102272.22;5022947;28;20128;-80
2022/07/15 05:53:18;;;;;;;12.32;5.30;;;;;;;13.72;83.70;102279.75;5016797;28;20053;-80
2022/07/15 05:55:44;;;;;;;13.30;4.95;;;;;;;13.72;84.46;102272.66;5015793;28;20139;-80
2022/07/15 05:58:10;;;;;;;15.23;5.00;;;;;;;13.80;83.73;102275.66;5017572;28;20022;-80
2022/07/15 06:00:37;;;;;;;14.68;4.70;;;;;;;13.90;83.77;102280.34;5012276;28;20320;-75
2022/07/15 06:03:03;;;;;;;13.77;4.53;;;;;;;13.91;83.75;102276.75;5012595;28;20045;-79
2022/07/15 06:05:29;;;;;;;13.93;4.97;;;;;;;13.96;83.38;102277.28;5009021;28;20497;-75
2022/07/15 06:07:54;;;;;;;15.20;5.03;;;;;;;14.00;83.38;102273.50;5014331;28;20095;-75
2022/07/15 06:10:20;;;;;;;13.48;4.60;;;;;;;14.02;83.74;102275.13;5019193;28;20046;-80
2022/07/15 06:12:46;;;;;;;9.88;4.30;;;;;;;14.10;83.65;102274.59;5020597;28;20022;-75
2022/07/15 06:15:11;;;;;;;11.85;4.13;;;;;;;14.15;83.00;102261.06;5019506;28;20036;-75
2022/07/15 06:17:37;;;;;;;14.23;4.80;;;;;;;14.19;82.11;102275.78;5009557;28;20029;-75
2022/07/15 06:20:03;;;;;;;12.85;4.32;;;;;;;14.26;82.21;102275.28;5014281;28;20437;-75
2022/07/15 06:22:28;;;;;;;9.93;4.35;;;;;;;14.29;82.50;102272.44;5017084;28;20041;-77
2022/07/15 06:24:54;;;;;;;14.88;4.03;;;;;;;14.37;81.25;102275.41;5019676;28;20045;-75
2022/07/15 06:27:21;;;;;;;11.40;4.07;;;;;;;14.46;80.82;102267.84;5021356;28;20026;-79
2022/07/15 06:29:49;;;;;;;8.80;3.63;;;;;;;14.50;81.19;102277.28;5015140;28;20034;-79
2022/07/15 06:32:18;;;;;;;10.00;3.28;;;;;;;14.54;80.75;102269.03;5016610;28;20029;-74
2022/07/15 06:34:44;;;;;;;7.57;3.40;;;;;;;14.62;80.15;102265.84;5018345;28;20048;-74
2022/07/15 06:37:09;;;;;;;8.18;3.47;;;;;;;14.69;79.79;102272.41;5019666;28;20103;-74
2022/07/15 06:39:35;;;;;;;7.63;2.90;;;;;;;14.72;79.29;102272.19;5019417;28;20360;-75
2022/07/15 06:42:01;;;;;;;7.90;2.10;;;;;;;14.81;76.62;102274.25;5018521;28;20375;-80
2022/07/15 06:44:26;;;;;;;7.60;1.98;;;;;;;14.88;75.47;102272.00;5011866;28;20037;-75
2022/07/15 06:46:52;;;;;;;9.68;2.63;;;;;;;14.92;76.30;102277.00;5013878;28;20113;-76
2022/07/15 06:49:21;;;;;;;4.85;1.95;;;;;;;14.99;75.96;102278.25;5012319;28;20065;-75
2022/07/15 06:51:46;;;;;;;8.93;2.10;;;;;;;15.05;74.40;102269.03;5024610;28;20084;-75
2022/07/15 06:54:11;;;;;;;7.78;1.58;;;;;;;15.13;74.25;102277.28;5015198;28;20022;-81
2022/07/15 06:56:38;;;;;;;7.57;1.85;;;;;;;15.20;73.12;102277.69;5017140;28;20033;-75
2022/07/15 06:59:05;;;;;;;7.93;1.92;;;;;;;15.35;73.14;102274.81;5011607;28;20022;-77
2022/07/15 07:01:31;;;;;;;6.43;1.40;;;;;;;15.48;73.08;102272.13;5010660;28;20052;-74
2022/07/15 07:03:56;;;;;;;6.78;1.50;;;;;;;15.59;71.24;102261.59;5025361;28;20405;-76
2022/07/15 07:06:22;;;;;;;10.43;1.52;;;;;;;15.75;70.85;102273.78;5010293;28;20022;-76
2022/07/15 07:08:47;;;;;;;7.65;1.60;;;;;;;15.95;71.58;102270.50;5010466;28;20385;-79
2022/07/15 07:11:14;;;;;;;5.85;1.35;;;;;;;16.16;67.63;102262.75;5011238;28;20025;-80
2022/07/15 07:13:39;;;;;;;4.72;1.10;;;;;;;16.34;65.39;102266.66;5009224;28;20112;-80
2022/07/15 07:16:05;;;;;;;7.60;1.38;;;;;;;16.61;64.75;102274.38;5010156;28;21009;-74
2022/07/15 07:18:31;;;;;;;6.05;1.20;;;;;;;16.86;62.60;102279.53;5020248;28;20034;-74
2022/07/15 07:20:56;;;;;;;8.60;1.45;;;;;;;16.95;61.96;102283.28;5019001;28;20013;-75
2022/07/15 07:23:26;;;;;;;8.15;1.30;;;;;;;17.27;60.55;102278.09;5011289;28;20018;-75
2022/07/15 07:25:54;;;;;;;7.05;1.40;;;;;;;17.54;59.74;102283.84;5018541;28;20565;-76
2022/07/15 07:28:24;;;;;;;5.20;1.08;;;;;;;17.66;59.38;102283.84;5010471;28;20034;-76
2022/07/15 07:30:50;;;;;;;7.68;1.23;;;;;;;17.77;58.60;102278.53;5010320;28;20022;-82
2022/07/15 07:33:16;;;;;;;7.68;1.30;;;;;;;18.20;59.10;102272.31;5010532;28;20030;-76
2022/07/15 07:35:47;;;;;;;3.38;1.10;;;;;;;18.35;57.13;102279.00;5008988;28;20026;-76
2022/07/15 07:38:13;;;;;;;5.30;1.30;;;;;;;18.73;56.67;102281.13;5023200;28;20065;-76
2022/07/15 07:40:40;;;;;;;5.78;1.13;;;;;;;18.84;54.75;102280.22;5010456;28;20030;-76
2022/07/15 07:43:05;;;;;;;6.95;1.40;;;;;;;19.20;54.74;102286.84;5009822;28;20025;-82
2022/07/15 07:45:31;;;;;;;6.18;1.15;;;;;;;19.40;53.52;102292.13;5015405;28;20091;-76
2022/07/15 07:47:56;;;;;;;3.45;1.08;;;;;;;19.69;52.67;102289.56;5009523;28;20113;-76
2022/07/15 07:50:22;;;;;;;4.10;0.95;;;;;;;19.57;52.93;102287.97;5007989;28;20440;-73
2022/07/15 07:52:48;;;;;;;6.63;1.10;;;;;;;19.79;50.17;102292.25;5008665;28;20057;-74
2022/07/15 07:55:17;;;;;;;4.85;1.30;;;;;;;19.90;51.99;102280.59;5010674;28;20018;-75
2022/07/15 07:57:54;;;;;;;6.80;1.30;;;;;;;20.02;52.42;102275.00;5010362;28;20073;-75
2022/07/15 08:00:21;;;;;;;3.95;1.10;;;;;;;19.97;52.62;102279.03;5014115;28;20022;-77
2022/07/15 08:02:47;;;;;;;5.13;1.30;;;;;;;19.91;52.51;102279.59;5011874;28;20390;-75
2022/07/15 08:05:14;;;;;;;4.80;1.48;;;;;;;20.00;51.29;102282.28;5007720;28;20018;-75
2022/07/15 08:07:41;;;;;;;5.75;1.33;;;;;;;20.09;50.02;102277.09;5009346;28;20458;-75
2022/07/15 08:10:09;;;;;;;5.22;1.10;;;;;;;20.23;50.32;102274.00;5008746;28;20057;-75
2022/07/15 08:12:37;;;;;;;4.20;1.10;;;;;;;20.43;50.47;102275.72;5006993;28;20040;-77
2022/07/15 08:15:04;;;;;;;4.38;1.00;;;;;;;20.75;49.76;102275.34;5009465;28;20034;-76
2022/07/15 08:17:30;;;;;;;6.15;1.20;;;;;;;20.78;49.44;102268.84;5008703;28;20245;-75
2022/07/15 08:19:55;;;;;;;6.75;1.38;;;;;;;20.86;49.55;102271.69;5015840;28;20025;-76
2022/07/15 08:22:21;;;;;;;5.13;1.83;;;;;;;20.74;48.41;102279.00;5008020;28;20033;-75
2022/07/15 08:24:46;;;;;;;8.18;1.40;;;;;;;20.52;48.88;102284.69;5008681;28;20022;-75
2022/07/15 08:27:12;;;;;;;6.88;1.15;;;;;;;20.67;49.19;102287.75;5028304;28;20030;-78
2022/07/15 08:29:41;;;;;;;5.65;1.20;;;;;;;20.90;47.96;102279.25;5010525;28;20034;-77
2022/07/15 08:32:07;;;;;;;4.75;1.13;;;;;;;20.82;47.64;102278.31;5008396;28;20077;-77
2022/07/15 08:34:32;;;;;;;6.85;1.10;;;;;;;20.89;46.97;102284.75;5007158;28;20037;-75
2022/07/15 08:36:57;;;;;;;6.97;1.15;;;;;;;21.31;47.14;102287.03;5016378;28;20057;-77
2022/07/15 08:39:23;;;;;;;5.45;1.20;;;;;;;21.41;46.76;102285.97;5008770;28;20069;-75
2022/07/15 08:41:51;;;;;;;5.38;1.13;;;;;;;21.41;46.53;102282.44;5013240;28;20029;-75
2022/07/15 08:44:19;;;;;;;5.10;1.25;;;;;;;21.34;46.35;102276.00;5009546;28;20057;-76
2022/07/15 08:46:47;;;;;;;7.68;1.15;;;;;;;21.44;46.73;102266.09;5009266;28;20026;-75
2022/07/15 08:49:19;;;;;;;2.53;0.93;;;;;;;21.62;47.07;102263.47;5009950;28;20029;-75
2022/07/15 08:51:47;;;;;;;5.82;1.38;;;;;;;21.97;45.30;102267.97;5009865;28;20112;-76
2022/07/15 08:54:14;;;;;;;4.75;1.00;;;;;;;22.02;44.33;102263.03;5009160;28;20038;-75
2022/07/15 08:56:39;;;;;;;2.88;1.00;;;;;;;22.04;44.50;102269.94;5007483;28;20034;-75
2022/07/15 08:59:06;;;;;;;6.03;1.00;;;;;;;22.21;45.25;102276.28;5010066;28;20346;-75
2022/07/15 09:01:33;;;;;;;3.92;1.13;;;;;;;21.99;44.27;102265.97;5008359;28;20131;-75
2022/07/15 09:03:59;;;;;;;2.90;0.77;;;;;;;21.89;45.84;102269.59;5009032;28;20425;-75
2022/07/15 09:06:36;;;;;;;4.15;1.10;;;;;;;21.99;44.54;102276.69;5008132;28;20088;-76
2022/07/15 09:09:32;;;;;;;4.93;0.80;;;;;;;22.33;46.39;102263.47;5009203;28;20032;-76
2022/07/15 09:12:06;;;;;;;4.32;1.00;;;;;;;22.32;42.98;102259.94;5012438;28;20040;-76
2022/07/15 09:14:34;;;;;;;4.22;1.08;;;;;;;21.78;42.96;102261.78;5006797;28;20045;-76
2022/07/15 09:17:10;;;;;;;4.97;1.00;;;;;;;22.15;44.25;102263.50;5008984;28;20029;-76
2022/07/15 09:19:57;;;;;;;2.78;0.77;;;;;;;22.45;45.08;102262.25;5008268;28;20038;-74
2022/07/15 09:22:23;;;;;;;4.75;0.98;;;;;;;22.45;42.70;102252.34;5007717;28;20029;-76
2022/07/15 09:25:09;;;;;;;4.82;0.90;;;;;;;22.51;44.58;102256.25;5009295;28;20026;-74
2022/07/15 09:27:37;;;;;;;6.95;1.05;;;;;;;22.50;41.88;102252.72;5035165;28;20037;-74
2022/07/15 09:33:34;;;;;;;4.25;1.05;;;;;;;22.35;40.68;102256.94;5054891;28;20159;-76
2022/07/15 09:36:20;;;;;;;4.80;1.20;;;;;;;22.27;42.74;102256.03;5047672;28;20028;-75
2022/07/15 09:39:00;;;;;;;2.97;0.80;;;;;;;21.67;42.70;102256.66;5030389;28;20032;-76
2022/07/15 09:41:32;;;;;;;3.90;0.80;;;;;;;22.07;42.74;102258.06;5032057;28;20033;-76
2022/07/15 09:44:08;;;;;;;10.65;1.48;;;;;;;22.58;43.23;102256.44;5032837;28;20018;-77
2022/07/15 09:46:49;;;;;;;5.45;0.90;;;;;;;22.87;43.49;102256.16;5032888;28;20474;-75
2022/07/15 09:49:23;;;;;;;3.70;1.00;;;;;;;23.31;42.19;102254.19;5033235;28;20048;-76
2022/07/15 09:51:58;;;;;;;3.05;0.90;;;;;;;23.00;41.11;102254.72;5032469;28;20080;-75
2022/07/15 09:54:31;;;;;;;4.78;1.05;;;;;;;23.51;41.62;102258.25;5032321;28;20466;-75
2022/07/15 09:56:58;;;;;;;5.75;1.10;;;;;;;23.48;41.96;102252.38;5032018;28;20052;-76
2022/07/15 09:59:24;;;;;;;2.35;0.80;;;;;;;23.75;40.42;102246.75;5032249;28;20021;-76
2022/07/15 10:01:49;;;;;;;2.40;0.70;;;;;;;24.14;41.12;102241.59;5032628;28;20026;-76
2022/07/15 10:04:17;;;;;;;7.72;1.08;;;;;;;24.12;40.25;102243.59;5030217;28;20017;-75
2022/07/15 10:06:43;;;;;;;4.00;0.90;;;;;;;24.17;37.26;102238.56;5030606;28;20119;-74
2022/07/15 10:09:09;;;;;;;2.45;0.70;;;;;;;24.28;37.50;102232.84;5030238;28;20465;-74
2022/07/15 10:11:48;;;;;;;3.80;1.05;;;;;;;24.27;38.17;102239.25;5030261;28;20033;-76
2022/07/15 10:14:14;;;;;;;4.00;1.00;;;;;;;24.30;39.18;102230.84;5031431;28;20026;-75
2022/07/15 10:17:03;;;;;;;3.10;0.80;;;;;;;24.15;39.68;102224.44;5028724;28;20029;-75
2022/07/15 10:19:55;;;;;;;3.33;0.77;;;;;;;24.14;39.38;102225.44;5030684;28;20024;-75
2022/07/15 10:22:24;;;;;;;;;;;;;;;24.72;41.09;102224.34;5031270;28;20079;-75
2022/07/15 10:25:13;;;;;;;2.88;0.90;;;;;;;24.79;39.46;102214.56;5030666;28;20468;-76
2022/07/15 10:27:54;;;;;;;2.03;0.60;;;;;;;24.79;37.75;102225.34;5045664;28;20051;-75
2022/07/15 10:30:21;;;;;;;2.00;0.73;;;;;;;24.69;37.56;102224.72;5050578;28;20029;-75
2022/07/15 10:33:06;;;;;;;3.65;1.23;;;;;;;24.42;38.91;102228.66;5050490;28;20108;-75
2022/07/15 10:35:39;;;;;;;4.00;1.00;;;;;;;23.86;37.96;102216.88;5050597;28;20492;-75
2022/07/15 10:38:36;;;;;;;5.57;1.00;;;;;;;24.20;39.38;102208.63;5037755;28;20393;-75
2022/07/15 10:41:10;;;;;;;2.70;0.65;;;;;;;24.64;39.40;102213.63;5030735;28;20018;-75
2022/07/15 10:43:44;;;;;;;2.47;0.70;;;;;;;24.14;36.39;102212.00;5031713;28;20378;-75
2022/07/15 10:46:20;;;;;;;2.00;0.80;;;;;;;24.45;38.53;102211.31;5031473;28;20087;-75
2022/07/15 10:48:58;;;;;;;2.75;0.63;;;;;;;24.46;37.37;102213.84;5032068;28;20104;-75
2022/07/15 10:51:35;;;;;;;4.28;0.88;;;;;;;24.14;38.37;102203.94;5030791;28;20028;-76
2022/07/15 10:54:02;;;;;;;5.90;0.80;;;;;;;24.08;38.01;102201.09;5031050;28;20029;-76
2022/07/15 10:56:38;;;;;;;3.63;0.80;;;;;;;24.08;39.21;102198.41;5031337;28;20053;-75
2022/07/15 10:59:24;;;;;;;5.35;0.93;;;;;;;23.98;38.59;102195.84;5030452;28;20021;-75
2022/07/15 11:02:09;;;;;;;3.70;0.80;;;;;;;24.40;38.91;102197.53;5031001;28;20024;-74
2022/07/15 11:04:35;;;;;;;3.97;0.80;;;;;;;24.64;36.67;102195.63;5030577;28;20029;-76
2022/07/15 11:07:07;;;;;;;3.03;0.57;;;;;;;24.59;37.24;102189.09;5029027;28;20021;-74
2022/07/15 11:09:54;;;;;;;4.35;0.88;;;;;;;25.14;38.08;102193.59;5030235;28;20060;-74
2022/07/15 11:12:32;;;;;;;2.60;0.73;;;;;;;25.15;37.96;102195.28;5030017;28;20075;-75
2022/07/15 11:15:11;;;;;;;3.47;0.65;;;;;;;24.88;36.43;102186.63;5029984;28;20033;-77
2022/07/15 11:17:36;;;;;;;2.47;0.90;;;;;;;24.84;35.49;102184.47;5029971;28;20029;-77
2022/07/15 11:20:08;;;;;;;2.75;0.80;;;;;;;25.03;35.67;102194.00;5029172;28;20159;-76
2022/07/15 11:22:35;;;;;;;4.07;0.70;;;;;;;25.33;35.81;102195.03;5030008;28;20029;-76
2022/07/15 11:25:03;;;;;;;3.08;0.70;;;;;;;25.53;35.94;102180.06;5029949;28;20470;-74
2022/07/15 11:27:29;;;;;;;2.33;0.80;;;;;;;25.42;34.88;102183.16;5041486;28;20021;-75
2022/07/15 11:30:02;;;;;;;2.53;0.60;;;;;;;25.47;36.45;102170.00;5050184;28;20158;-76
2022/07/15 11:32:30;;;;;;;2.45;0.70;;;;;;;25.79;34.07;102175.19;5048566;28;20021;-76
2022/07/15 11:34:58;;;;;;;2.95;0.60;;;;;;;25.86;34.92;102167.19;5048823;28;20469;-76